• Join FlightAware (Why Join?)
  • Login
  • US Flag 
06:05AM EDT


 

Airport Tracker/Info


-or-


 

Live Flight TrackerFlight Track Log ✈ N80HB ✈ 27-Nov-2013 ✈ CYYR - BIKF / KEF

Flight Track Log - Related Links

Times and Time Zones

All times are in EST time to prevent confusion due to time zone crossing. See the N80HB flight status page for this flight to view local times or setup timezone preferences in your user account.

Time Position Orientation Groundspeed Altitude Reporting Facility
EST Latitude Longitude Course Direction KTS MPH feet Rate Location/Type
08:26AM 53.3167 -60.4167 222° Southwest 140 161 300  Level Gander Center
08:27AM 53.2833 -60.4667 222° Southwest 180 207 4,200 4,200 Climbing Gander Center
08:28AM 53.2333 -60.4667 180° South 210 242 8,800 4,200 Climbing Gander Center
08:29AM 53.2167 -60.4167 119° Southeast 210 242 12,600 2,940 Climbing Gander Center
08:30AM 53.2167 -60.2833 90° East 270 311 14,700 2,400 Climbing Gander Center
08:31AM 53.2667 -60.1667 54° Northeast 330 380 17,400 2,520 Climbing Gander Center
08:32AM 53.3500 -60.0833 31° Northeast 350 403 19,800 2,400 Climbing Gander Center
08:33AM 53.4333 -59.9667 40° Northeast 370 426 22,300 2,760 Climbing Gander Center
08:34AM 53.5167 -59.8500 40° Northeast 400 460 25,400 2,460 Climbing Gander Center
08:35AM 53.6167 -59.7333 35° Northeast 410 472 27,300 2,160 Climbing Gander Center
08:36AM 53.7000 -59.5833 47° Northeast 420 483 29,800 2,280 Climbing Gander Center
08:37AM 53.8000 -59.4667 35° Northeast 420 483 31,900 2,040 Climbing Gander Center
08:38AM 53.8833 -59.3500 40° Northeast 420 483 33,900 1,740 Climbing Gander Center
08:39AM 53.9833 -59.2000 41° Northeast 420 483 35,400 1,560 Climbing Gander Center
08:40AM 54.0667 -59.0833 39° Northeast 410 472 37,100 1,560 Climbing Gander Center
08:41AM 54.1667 -58.9667 34° Northeast 400 460 38,600 1,140 Climbing Gander Center
08:42AM 54.2333 -58.8500 46° Northeast 400 460 39,400 840 Climbing Gander Center
08:43AM 54.3167 -58.7333 39° Northeast 400 460 40,300 900 Climbing Gander Center
08:44AM 54.4000 -58.6167 39° Northeast 400 460 41,200 720 Climbing Gander Center
08:45AM 54.5000 -58.4833 38° Northeast 400 460 41,800 720 Climbing Gander Center
08:46AM 54.5833 -58.3667 39° Northeast 410 472 42,700 900 Climbing Gander Center
08:47AM 54.6667 -58.2500 39° Northeast 400 460 43,600 720 Climbing Gander Center
08:48AM 54.7667 -58.1333 34° Northeast 390 449 44,200 540 Climbing Gander Center
08:49AM 54.8333 -58.0000 49° Northeast 390 449 44,700 360 Climbing Gander Center
08:50AM 54.9167 -57.8833 39° Northeast 390 449 45,000 120 Climbing Gander Center
08:51AM 55.0000 -57.7500 43° Northeast 390 449 45,000  Level Gander Center
08:52AM 55.0833 -57.6333 39° Northeast 400 460 45,000  Level Gander Center
08:53AM 55.1833 -57.4833 41° Northeast 410 472 45,000  Level Gander Center
08:54AM 55.2500 -57.3500 49° Northeast 420 483 45,000  Level Gander Center
08:55AM 55.3500 -57.2333 34° Northeast 420 483 45,000  Level Gander Center
08:56AM 55.4500 -57.1000 37° Northeast 430 495 45,000  Level Gander Center
08:57AM 55.5500 -56.9333 43° Northeast 430 495 45,000  Level Gander Center
08:58AM 55.5167 -57.0167 54° Northeast 445 512 45,000  Level ETMS Enhanced Traffic Management System
08:58AM 55.6000 -56.7500 54° Northeast 440 506 45,000  Level Gander Center
08:58AM 55.5167 -57.0167 54° Northeast 445 512 45,000  Level ETMS Enhanced Traffic Management System
08:59AM 55.6833 -56.5667 51° Northeast 450 518 45,000  Level Gander Center
09:00AM 55.7333 -56.3833 64° Northeast 450 518 45,000  Level Gander Center
09:01AM 55.8167 -56.2333 45° Northeast 450 518 45,000  Level Gander Center
09:02AM 55.9000 -56.0333 53° Northeast 450 518 45,000  Level Gander Center
09:03AM 55.9667 -55.8500 57° Northeast 450 518 45,000  Level Gander Center
09:04AM 56.0500 -55.6667 51° Northeast 450 518 45,000  Level Gander Center
09:05AM 56.1000 -55.4667 66° East 450 518 45,000  Level Gander Center
09:06AM 56.1833 -55.2833 51° Northeast 460 529 45,000  Level Gander Center
09:07AM 56.2500 -55.1167 54° Northeast 470 541 45,000  Level Gander Center
09:08AM 56.3167 -54.9000 61° Northeast 460 529 45,000  Level Gander Center
09:09AM 56.4000 -54.7333 48° Northeast 460 529 45,000  Level Gander Center
09:10AM 56.4667 -54.5333 59° Northeast 450 518 45,000  Level Gander Center
09:11AM 56.5333 -54.3500 57° Northeast 460 529 45,000  Level Gander Center
09:12AM 56.6000 -54.1167 62° Northeast 460 529 45,000  Level Gander Center
09:13AM 56.6833 -53.9500 48° Northeast 450 518 45,000  Level Gander Center
09:14AM 56.7333 -53.7500 65° Northeast 450 518 45,000  Level Gander Center
09:15AM 56.8000 -53.5667 56° Northeast 460 529 45,000  Level Gander Center
09:16AM 56.8833 -53.3333 57° Northeast 460 529 45,000  Level Gander Center
09:17AM 56.9500 -53.1667 54° Northeast 460 529 45,000  Level Gander Center
09:18AM 57.0167 -52.9667 58° Northeast 460 529 45,000  Level Gander Center
09:19AM 57.0833 -52.8333 47° Northeast 460 529 45,000  Level Gander Center
09:21AM 57.1825 -52.5424 58° Northeast  Level FlightAware Approximate
09:28AM 57.6001 -51.2781 58° Northeast  Level FlightAware Approximate
09:29AM 57.6586 -51.0951 59° Northeast  Level FlightAware Approximate
09:30AM 57.7170 -50.9115 59° Northeast  Level FlightAware Approximate
09:31AM 57.7751 -50.7274 59° Northeast  Level FlightAware Approximate
09:32AM 57.8329 -50.5426 60° Northeast  Level FlightAware Approximate
09:33AM 57.8904 -50.3573 60° Northeast  Level FlightAware Approximate
09:34AM 57.9476 -50.1713 60° Northeast  Level FlightAware Approximate
09:34AM 58.0000 -50.0000 55° Northeast 460 529 45,000  Level ETMS Enhanced Traffic Management System
09:35AM 58.0052 -49.9854 56° Northeast  Level FlightAware Approximate
09:36AM 58.0692 -49.8069 56° Northeast  Level FlightAware Approximate
09:37AM 58.1330 -49.6276 56° Northeast  Level FlightAware Approximate
09:38AM 58.1965 -49.4478 56° Northeast  Level FlightAware Approximate
09:39AM 58.2597 -49.2673 56° Northeast  Level FlightAware Approximate
09:40AM 58.5040 -48.5925 56° Northeast 460 529 45,000  Level FlightAware Transoceanic
09:41AM 58.5747 -48.3881 57° Northeast 460 529 45,000  Level FlightAware Transoceanic
09:42AM 58.6451 -48.1829 57° Northeast 460 529 45,000  Level FlightAware Transoceanic
09:43AM 58.7152 -47.9769 57° Northeast 460 529 45,000  Level FlightAware Transoceanic
09:44AM 58.7849 -47.7701 57° Northeast 460 529 45,000  Level FlightAware Transoceanic
09:45AM 58.8543 -47.5624 57° Northeast 460 529 45,000  Level FlightAware Transoceanic
09:46AM 58.9234 -47.3539 57° Northeast 460 529 45,000  Level FlightAware Transoceanic
09:47AM 58.9921 -47.1446 58° Northeast 460 529 45,000  Level FlightAware Transoceanic
09:48AM 59.0606 -46.9344 58° Northeast 460 529 45,000  Level FlightAware Transoceanic
09:49AM 59.1286 -46.7234 58° Northeast 460 529 45,000  Level FlightAware Transoceanic
09:50AM 59.1963 -46.5116 58° Northeast 460 529 45,000  Level FlightAware Transoceanic
09:51AM 59.2637 -46.2989 58° Northeast 460 529 45,000  Level FlightAware Transoceanic
09:52AM 59.3307 -46.0854 59° Northeast 460 529 45,000  Level FlightAware Transoceanic
09:53AM 59.3974 -45.8710 59° Northeast 460 529 45,000  Level FlightAware Transoceanic
09:54AM 59.4637 -45.6558 59° Northeast 460 529 45,000  Level FlightAware Transoceanic
09:55AM 59.5297 -45.4397 59° Northeast 460 529 45,000  Level FlightAware Transoceanic
09:56AM 59.5952 -45.2228 59° Northeast 460 529 45,000  Level FlightAware Transoceanic
09:57AM 59.6605 -45.0051 59° Northeast 460 529 45,000  Level FlightAware Transoceanic
09:58AM 59.7254 -44.7865 60° Northeast 460 529 45,000  Level FlightAware Transoceanic
09:59AM 59.7899 -44.5671 60° Northeast 460 529 45,000  Level FlightAware Transoceanic
10:00AM 59.8540 -44.3468 60° Northeast 460 529 45,000  Level FlightAware Transoceanic
10:01AM 59.9178 -44.1256 60° Northeast 460 529 45,000  Level FlightAware Transoceanic
10:02AM 59.9812 -43.9037 60° Northeast 460 529 45,000  Level FlightAware Transoceanic
10:03AM 60.0443 -43.6808 61° Northeast 460 529 45,000  Level FlightAware Transoceanic
10:04AM 60.1069 -43.4572 61° Northeast 460 529 45,000  Level FlightAware Transoceanic
10:05AM 60.1692 -43.2326 61° Northeast 460 529 45,000  Level FlightAware Transoceanic
10:06AM 60.2311 -43.0073 61° Northeast 460 529 45,000  Level FlightAware Transoceanic
10:07AM 60.2926 -42.7810 61° Northeast 460 529 45,000  Level FlightAware Transoceanic
10:08AM 60.3537 -42.5539 62° Northeast 460 529 45,000  Level FlightAware Transoceanic
10:09AM 60.4145 -42.3260 62° Northeast 460 529 45,000  Level FlightAware Transoceanic
10:10AM 60.4748 -42.0972 62° Northeast 460 529 45,000  Level FlightAware Transoceanic
10:11AM 60.5348 -41.8676 62° Northeast 460 529 45,000  Level FlightAware Transoceanic
10:12AM 60.5943 -41.6371 62° Northeast 460 529 45,000  Level FlightAware Transoceanic
10:13AM 60.6535 -41.4058 63° Northeast 460 529 45,000  Level FlightAware Transoceanic
10:14AM 60.7123 -41.1736 63° Northeast 460 529 45,000  Level FlightAware Transoceanic
10:15AM 60.7706 -40.9406 63° Northeast 460 529 45,000  Level FlightAware Transoceanic
10:16AM 60.8286 -40.7067 63° Northeast 460 529 45,000  Level FlightAware Transoceanic
10:17AM 60.8861 -40.4720 63° Northeast 460 529 45,000  Level FlightAware Transoceanic
10:18AM 60.9433 -40.2364 64° Northeast 460 529 45,000  Level FlightAware Transoceanic
10:19AM 60.9939 -40.0256 64° Northeast  Level FlightAware Approximate
10:20AM 61.0442 -39.8140 64° Northeast  Level FlightAware Approximate
10:21AM 61.0398 -39.8414 63° Northeast  Level FlightAware Approximate
10:22AM 61.0920 -39.6316 63° Northeast  Level FlightAware Approximate
10:23AM 61.1438 -39.4210 63° Northeast  Level FlightAware Approximate
10:24AM 61.1954 -39.2098 63° Northeast  Level FlightAware Approximate
10:25AM 61.2466 -38.9979 63° Northeast  Level FlightAware Approximate
10:26AM 61.2975 -38.7853 63° Northeast  Level FlightAware Approximate
10:27AM 61.3480 -38.5720 64° Northeast  Level FlightAware Approximate
10:28AM 61.3982 -38.3580 64° Northeast  Level FlightAware Approximate
10:29AM 61.4481 -38.1433 64° Northeast  Level FlightAware Approximate
10:30AM 61.4976 -37.9280 64° Northeast  Level FlightAware Approximate
10:31AM 61.5468 -37.7119 64° Northeast  Level FlightAware Approximate
10:32AM 61.5957 -37.4952 65° Northeast  Level FlightAware Approximate
10:33AM 61.6442 -37.2778 65° Northeast  Level FlightAware Approximate
10:34AM 61.6923 -37.0597 65° Northeast  Level FlightAware Approximate
10:35AM 61.7402 -36.8409 65° Northeast  Level FlightAware Approximate
10:36AM 61.7876 -36.6215 65° Northeast  Level FlightAware Approximate
10:37AM 61.8347 -36.4014 66° East  Level FlightAware Approximate
10:38AM 61.8815 -36.1806 66° East  Level FlightAware Approximate
10:39AM 61.9279 -35.9591 66° East  Level FlightAware Approximate
10:40AM 61.9739 -35.7370 66° East  Level FlightAware Approximate
10:41AM 62.0196 -35.5142 66° East  Level FlightAware Approximate
10:42AM 62.0650 -35.2907 67° East  Level FlightAware Approximate
10:43AM 62.1099 -35.0666 67° East  Level FlightAware Approximate
10:44AM 62.1545 -34.8418 67° East  Level FlightAware Approximate
10:45AM 62.1988 -34.6163 67° East  Level FlightAware Approximate
10:46AM 62.2427 -34.3902 67° East  Level FlightAware Approximate
10:47AM 62.2862 -34.1634 67° East  Level FlightAware Approximate
10:48AM 62.3293 -33.9360 68° East  Level FlightAware Approximate
10:49AM 62.3721 -33.7079 68° East  Level FlightAware Approximate
10:50AM 62.4144 -33.4792 68° East  Level FlightAware Approximate
10:51AM 62.4565 -33.2498 68° East  Level FlightAware Approximate
10:52AM 62.4981 -33.0198 69° East  Level FlightAware Approximate
10:53AM 62.5393 -32.7891 69° East  Level FlightAware Approximate
10:54AM 62.5802 -32.5578 69° East  Level FlightAware Approximate
10:55AM 62.6207 -32.3259 69° East  Level FlightAware Approximate
10:56AM 62.6608 -32.0933 69° East  Level FlightAware Approximate
10:57AM 62.7005 -31.8601 70° East  Level FlightAware Approximate
10:58AM 63.0000 -30.0000 70° East 470 541 45,000  Level ETMS Enhanced Traffic Management System
10:58AM 62.7399 -31.6263 70° East  Level FlightAware Approximate
10:59AM 62.7788 -31.3919 70° East  Level FlightAware Approximate
11:00AM 62.8174 -31.1568 70° East  Level FlightAware Approximate
11:01AM 62.8555 -30.9212 70° East  Level FlightAware Approximate
11:02AM 62.8933 -30.6849 71° East  Level FlightAware Approximate
11:03AM 62.9307 -30.4480 71° East  Level FlightAware Approximate
11:04AM 62.9676 -30.2105 71° East  Level FlightAware Approximate
11:05AM 63.3458 -27.8036 72° East 470 541 45,000  Level FlightAware Transoceanic
11:06AM 63.3867 -27.5254 72° East 470 541 45,000  Level FlightAware Transoceanic
11:07AM 63.4269 -27.2464 72° East 470 541 45,000  Level FlightAware Transoceanic
11:08AM 63.4149 -27.2787 69° East  Level FlightAware Approximate
11:09AM 63.4547 -27.0394 70° East  Level FlightAware Approximate
11:10AM 63.4841 -26.7930 77° East  Level FlightAware Approximate
11:11AM 63.5184 -26.5508 63° Northeast  Level FlightAware Approximate
11:12AM 63.5526 -26.3077 76° East  Level FlightAware Approximate
11:13AM 63.5796 -26.0585 76° East  Level FlightAware Approximate
11:14AM 63.6082 -25.8102 72° East  Level FlightAware Approximate
11:15AM 63.6433 -25.5657 72° East  Level FlightAware Approximate
11:16AM 63.6781 -25.3206 72° East  Level FlightAware Approximate
11:17AM 63.7070 -25.0715 76° East  Level FlightAware Approximate
11:18AM 63.7346 -24.8213 76° East  Level FlightAware Approximate
11:19AM 63.7617 -24.5706 76° East  Level FlightAware Approximate
11:20AM 63.7900 -24.3205 72° East  Level FlightAware Approximate
11:21AM 63.8251 -24.0744 72° East  Level FlightAware Approximate
11:22AM 63.8535 -23.8238 77° East  Level FlightAware Approximate
11:23AM 63.8795 -23.5714 77° East  Level FlightAware Approximate
11:24AM 63.9031 -23.3176 78° East  Level FlightAware Approximate
11:25AM 63.9245 -23.0633 76° East  Level FlightAware Approximate
11:26AM 63.9491 -22.8097 78° East  Level FlightAware Approximate
11:27AM 63.9667 -22.6167 78° East  Level FlightAware Approximate
11:28AM 63.9850 -22.6056 78° East  Level Estimated
11:29AM 63.9850 -22.6056 78° East  Level Estimated
11:30AM 63.9850 -22.6056 78° East  Level Estimated
11:31AM 63.9850 -22.6056 78° East  Level Estimated
11:32AM 63.9850 -22.6056 78° East  Level Estimated
11:33AM 63.9850 -22.6056 78° East  Level Estimated
11:34AM 63.9850 -22.6056 78° East  Level Estimated
11:35AM 63.9850 -22.6056 78° East  Level Estimated
11:36AM 63.9850 -22.6056 78° East  Level Estimated
11:37AM 63.9850 -22.6056 78° East  Level Estimated
11:38AM 63.9850 -22.6056 78° East  Level Estimated
11:39AM 63.9850 -22.6056 78° East  Level Estimated
11:40AM 63.9850 -22.6056 78° East  Level Estimated
11:41AM 63.9850 -22.6056 78° East  Level Estimated
11:42AM 63.9850 -22.6056 78° East  Level Estimated
11:43AM 63.9850 -22.6056 78° East  Level Estimated
11:44AM 63.9850 -22.6056 78° East  Level Estimated
11:45AM 63.9850 -22.6056 78° East  Level Estimated
11:46AM 63.9850 -22.6056 78° East  Level Estimated
11:47AM 63.9850 -22.6056 78° East  Level Estimated
11:48AM 63.9850 -22.6056 78° East  Level Estimated
11:49AM 63.9850 -22.6056 78° East  Level Estimated
11:50AM 63.9850 -22.6056 78° East  Level Estimated
11:51AM 63.9850 -22.6056 78° East  Level Estimated
11:52AM 63.9850 -22.6056 78° East  Level Estimated
11:53AM 63.9850 -22.6056 78° East  Level Estimated
11:54AM 63.9850 -22.6056 78° East  Level Estimated
11:55AM 63.9850 -22.6056 78° East  Level Estimated
11:56AM 63.9850 -22.6056 78° East  Level Estimated